sensor_id;sensor_type;location;lat;lon;timestamp;P1;durP1;ratioP1;P2;durP2;ratioP2
3101;SDS011;1561;42.666;23.392;2023-07-29T00:00:26;4.95;;;4.45;;
3101;SDS011;1561;42.666;23.392;2023-07-29T00:02:54;4.53;;;4.13;;
3101;SDS011;1561;42.666;23.392;2023-07-29T00:05:25;4.20;;;3.90;;
3101;SDS011;1561;42.666;23.392;2023-07-29T00:07:52;4.22;;;3.83;;
3101;SDS011;1561;42.666;23.392;2023-07-29T00:10:19;4.03;;;3.72;;
3101;SDS011;1561;42.666;23.392;2023-07-29T00:12:46;4.70;;;4.30;;
3101;SDS011;1561;42.666;23.392;2023-07-29T00:15:19;4.65;;;4.28;;
3101;SDS011;1561;42.666;23.392;2023-07-29T00:17:46;4.43;;;4.03;;
3101;SDS011;1561;42.666;23.392;2023-07-29T00:20:13;5.25;;;4.38;;
3101;SDS011;1561;42.666;23.392;2023-07-29T00:22:43;4.40;;;4.10;;
3101;SDS011;1561;42.666;23.392;2023-07-29T00:25:10;5.72;;;4.65;;
3101;SDS011;1561;42.666;23.392;2023-07-29T00:27:37;5.63;;;5.13;;
3101;SDS011;1561;42.666;23.392;2023-07-29T00:30:06;7.85;;;5.93;;
3101;SDS011;1561;42.666;23.392;2023-07-29T00:32:36;5.25;;;4.70;;
3101;SDS011;1561;42.666;23.392;2023-07-29T00:35:04;5.43;;;3.97;;
3101;SDS011;1561;42.666;23.392;2023-07-29T00:37:32;4.80;;;4.40;;
3101;SDS011;1561;42.666;23.392;2023-07-29T00:40:02;5.68;;;4.50;;
3101;SDS011;1561;42.666;23.392;2023-07-29T00:42:31;4.40;;;4.10;;
3101;SDS011;1561;42.666;23.392;2023-07-29T00:44:58;4.90;;;4.40;;
3101;SDS011;1561;42.666;23.392;2023-07-29T00:47:33;4.15;;;3.85;;
3101;SDS011;1561;42.666;23.392;2023-07-29T00:50:03;4.28;;;3.95;;
3101;SDS011;1561;42.666;23.392;2023-07-29T00:52:31;4.60;;;4.30;;
3101;SDS011;1561;42.666;23.392;2023-07-29T00:54:59;5.40;;;4.43;;
3101;SDS011;1561;42.666;23.392;2023-07-29T00:57:26;4.45;;;4.07;;
3101;SDS011;1561;42.666;23.392;2023-07-29T00:59:56;4.45;;;4.07;;
3101;SDS011;1561;42.666;23.392;2023-07-29T01:02:31;4.30;;;3.95;;
3101;SDS011;1561;42.666;23.392;2023-07-29T01:05:05;4.85;;;4.45;;
3101;SDS011;1561;42.666;23.392;2023-07-29T01:07:37;4.68;;;4.28;;
3101;SDS011;1561;42.666;23.392;2023-07-29T01:10:14;4.80;;;4.47;;
3101;SDS011;1561;42.666;23.392;2023-07-29T01:12:53;4.57;;;4.28;;
3101;SDS011;1561;42.666;23.392;2023-07-29T01:15:26;4.38;;;3.97;;
3101;SDS011;1561;42.666;23.392;2023-07-29T01:18:02;4.88;;;4.38;;
3101;SDS011;1561;42.666;23.392;2023-07-29T01:20:34;4.65;;;4.25;;
3101;SDS011;1561;42.666;23.392;2023-07-29T01:23:06;5.00;;;4.60;;
3101;SDS011;1561;42.666;23.392;2023-07-29T01:25:35;5.20;;;4.80;;
3101;SDS011;1561;42.666;23.392;2023-07-29T01:28:04;4.82;;;4.43;;
3101;SDS011;1561;42.666;23.392;2023-07-29T01:30:37;4.78;;;4.38;;
3101;SDS011;1561;42.666;23.392;2023-07-29T01:33:19;4.60;;;4.20;;
3101;SDS011;1561;42.666;23.392;2023-07-29T01:35:55;4.28;;;3.80;;
3101;SDS011;1561;42.666;23.392;2023-07-29T01:38:35;3.97;;;3.67;;
3101;SDS011;1561;42.666;23.392;2023-07-29T01:41:07;4.13;;;3.83;;
3101;SDS011;1561;42.666;23.392;2023-07-29T01:43:38;4.30;;;3.90;;
3101;SDS011;1561;42.666;23.392;2023-07-29T01:46:11;4.50;;;4.10;;
3101;SDS011;1561;42.666;23.392;2023-07-29T01:48:41;4.30;;;4.00;;
3101;SDS011;1561;42.666;23.392;2023-07-29T01:51:11;4.70;;;4.30;;
3101;SDS011;1561;42.666;23.392;2023-07-29T01:53:41;5.00;;;4.50;;
3101;SDS011;1561;42.666;23.392;2023-07-29T01:56:11;4.85;;;4.45;;
3101;SDS011;1561;42.666;23.392;2023-07-29T01:58:38;6.15;;;4.57;;
3101;SDS011;1561;42.666;23.392;2023-07-29T02:01:08;4.38;;;4.00;;
3101;SDS011;1561;42.666;23.392;2023-07-29T02:03:35;4.75;;;4.35;;
3101;SDS011;1561;42.666;23.392;2023-07-29T02:06:03;4.85;;;4.45;;
3101;SDS011;1561;42.666;23.392;2023-07-29T02:08:31;5.05;;;4.50;;
3101;SDS011;1561;42.666;23.392;2023-07-29T02:10:59;4.40;;;4.10;;
3101;SDS011;1561;42.666;23.392;2023-07-29T02:13:29;4.28;;;3.88;;
3101;SDS011;1561;42.666;23.392;2023-07-29T02:16:01;6.35;;;4.20;;
3101;SDS011;1561;42.666;23.392;2023-07-29T02:18:28;4.50;;;4.10;;
3101;SDS011;1561;42.666;23.392;2023-07-29T02:20:55;4.87;;;4.47;;
3101;SDS011;1561;42.666;23.392;2023-07-29T02:23:23;4.90;;;4.50;;
3101;SDS011;1561;42.666;23.392;2023-07-29T02:25:51;4.97;;;4.57;;
3101;SDS011;1561;42.666;23.392;2023-07-29T02:28:18;4.50;;;4.10;;
3101;SDS011;1561;42.666;23.392;2023-07-29T02:30:54;5.57;;;5.17;;
3101;SDS011;1561;42.666;23.392;2023-07-29T02:33:37;4.82;;;4.32;;
3101;SDS011;1561;42.666;23.392;2023-07-29T02:36:04;5.30;;;4.20;;
3101;SDS011;1561;42.666;23.392;2023-07-29T02:38:32;4.57;;;4.13;;
3101;SDS011;1561;42.666;23.392;2023-07-29T02:40:59;6.53;;;4.23;;
3101;SDS011;1561;42.666;23.392;2023-07-29T02:43:27;4.87;;;4.53;;
3101;SDS011;1561;42.666;23.392;2023-07-29T02:45:56;5.27;;;4.60;;
3101;SDS011;1561;42.666;23.392;2023-07-29T02:48:25;5.03;;;4.63;;
3101;SDS011;1561;42.666;23.392;2023-07-29T02:50:53;4.83;;;4.33;;
3101;SDS011;1561;42.666;23.392;2023-07-29T02:53:21;4.93;;;4.43;;
3101;SDS011;1561;42.666;23.392;2023-07-29T02:55:51;4.40;;;4.10;;
3101;SDS011;1561;42.666;23.392;2023-07-29T02:58:23;4.73;;;4.33;;
3101;SDS011;1561;42.666;23.392;2023-07-29T03:00:52;4.90;;;4.50;;
3101;SDS011;1561;42.666;23.392;2023-07-29T03:03:23;5.30;;;4.53;;
3101;SDS011;1561;42.666;23.392;2023-07-29T03:05:52;4.43;;;4.10;;
3101;SDS011;1561;42.666;23.392;2023-07-29T03:08:30;5.20;;;4.70;;
3101;SDS011;1561;42.666;23.392;2023-07-29T03:11:05;5.13;;;4.63;;
3101;SDS011;1561;42.666;23.392;2023-07-29T03:13:36;5.20;;;4.50;;
3101;SDS011;1561;42.666;23.392;2023-07-29T03:16:06;5.20;;;4.67;;
3101;SDS011;1561;42.666;23.392;2023-07-29T03:18:38;4.20;;;3.90;;
3101;SDS011;1561;42.666;23.392;2023-07-29T03:21:05;4.97;;;4.57;;
3101;SDS011;1561;42.666;23.392;2023-07-29T03:23:44;5.37;;;4.87;;
3101;SDS011;1561;42.666;23.392;2023-07-29T03:26:16;4.33;;;4.03;;
3101;SDS011;1561;42.666;23.392;2023-07-29T03:28:45;5.57;;;5.07;;
3101;SDS011;1561;42.666;23.392;2023-07-29T03:31:12;5.70;;;4.73;;
3101;SDS011;1561;42.666;23.392;2023-07-29T03:33:42;5.27;;;4.77;;
3101;SDS011;1561;42.666;23.392;2023-07-29T03:36:09;5.57;;;4.40;;
3101;SDS011;1561;42.666;23.392;2023-07-29T03:38:37;5.90;;;4.35;;
3101;SDS011;1561;42.666;23.392;2023-07-29T03:41:06;5.25;;;4.85;;
3101;SDS011;1561;42.666;23.392;2023-07-29T03:43:34;6.07;;;4.80;;
3101;SDS011;1561;42.666;23.392;2023-07-29T03:46:03;5.03;;;4.63;;
3101;SDS011;1561;42.666;23.392;2023-07-29T03:48:30;5.63;;;5.05;;
3101;SDS011;1561;42.666;23.392;2023-07-29T03:51:00;5.03;;;4.53;;
3101;SDS011;1561;42.666;23.392;2023-07-29T03:53:28;5.03;;;4.63;;
3101;SDS011;1561;42.666;23.392;2023-07-29T03:55:59;6.32;;;5.78;;
3101;SDS011;1561;42.666;23.392;2023-07-29T03:58:28;6.57;;;5.97;;
3101;SDS011;1561;42.666;23.392;2023-07-29T04:00:56;6.65;;;6.15;;
3101;SDS011;1561;42.666;23.392;2023-07-29T04:03:23;8.50;;;6.00;;
3101;SDS011;1561;42.666;23.392;2023-07-29T04:05:53;6.03;;;5.45;;
3101;SDS011;1561;42.666;23.392;2023-07-29T04:08:27;9.25;;;7.13;;
3101;SDS011;1561;42.666;23.392;2023-07-29T04:10:55;7.32;;;6.63;;
3101;SDS011;1561;42.666;23.392;2023-07-29T04:13:24;9.40;;;6.90;;
3101;SDS011;1561;42.666;23.392;2023-07-29T04:15:56;15.48;;;7.13;;
3101;SDS011;1561;42.666;23.392;2023-07-29T04:18:24;7.95;;;7.00;;
3101;SDS011;1561;42.666;23.392;2023-07-29T04:20:51;7.13;;;6.53;;
3101;SDS011;1561;42.666;23.392;2023-07-29T04:23:21;6.75;;;6.15;;
3101;SDS011;1561;42.666;23.392;2023-07-29T04:25:50;7.95;;;6.55;;
3101;SDS011;1561;42.666;23.392;2023-07-29T04:28:20;9.63;;;7.63;;
3101;SDS011;1561;42.666;23.392;2023-07-29T04:30:47;7.97;;;7.28;;
3101;SDS011;1561;42.666;23.392;2023-07-29T04:33:18;10.98;;;7.97;;
3101;SDS011;1561;42.666;23.392;2023-07-29T04:35:51;9.57;;;7.75;;
3101;SDS011;1561;42.666;23.392;2023-07-29T04:38:21;9.15;;;8.13;;
3101;SDS011;1561;42.666;23.392;2023-07-29T04:40:54;9.10;;;6.80;;
3101;SDS011;1561;42.666;23.392;2023-07-29T04:43:26;10.07;;;8.60;;
3101;SDS011;1561;42.666;23.392;2023-07-29T04:45:55;7.80;;;7.05;;
3101;SDS011;1561;42.666;23.392;2023-07-29T04:48:28;7.15;;;6.50;;
3101;SDS011;1561;42.666;23.392;2023-07-29T04:50:59;30.58;;;19.73;;
3101;SDS011;1561;42.666;23.392;2023-07-29T04:53:29;7.60;;;6.90;;
3101;SDS011;1561;42.666;23.392;2023-07-29T04:56:00;9.82;;;7.57;;
3101;SDS011;1561;42.666;23.392;2023-07-29T04:58:31;8.65;;;6.78;;
3101;SDS011;1561;42.666;23.392;2023-07-29T05:01:07;7.57;;;6.97;;
3101;SDS011;1561;42.666;23.392;2023-07-29T05:03:35;8.80;;;7.03;;
3101;SDS011;1561;42.666;23.392;2023-07-29T05:06:06;9.48;;;7.57;;
3101;SDS011;1561;42.666;23.392;2023-07-29T05:08:43;9.30;;;8.32;;
3101;SDS011;1561;42.666;23.392;2023-07-29T05:11:13;8.95;;;6.45;;
3101;SDS011;1561;42.666;23.392;2023-07-29T05:13:40;7.57;;;6.30;;
3101;SDS011;1561;42.666;23.392;2023-07-29T05:16:17;7.28;;;6.55;;
3101;SDS011;1561;42.666;23.392;2023-07-29T05:18:45;7.43;;;6.40;;
3101;SDS011;1561;42.666;23.392;2023-07-29T05:21:12;9.07;;;6.50;;
3101;SDS011;1561;42.666;23.392;2023-07-29T05:23:41;7.03;;;6.32;;
3101;SDS011;1561;42.666;23.392;2023-07-29T05:26:15;7.50;;;6.57;;
3101;SDS011;1561;42.666;23.392;2023-07-29T05:28:46;6.43;;;5.93;;
3101;SDS011;1561;42.666;23.392;2023-07-29T05:31:16;9.05;;;7.13;;
3101;SDS011;1561;42.666;23.392;2023-07-29T05:33:47;6.68;;;6.18;;
3101;SDS011;1561;42.666;23.392;2023-07-29T05:36:15;7.18;;;6.40;;
3101;SDS011;1561;42.666;23.392;2023-07-29T05:38:43;7.72;;;6.78;;
3101;SDS011;1561;42.666;23.392;2023-07-29T05:41:11;7.90;;;6.97;;
3101;SDS011;1561;42.666;23.392;2023-07-29T05:43:40;8.40;;;7.50;;
3101;SDS011;1561;42.666;23.392;2023-07-29T05:46:09;8.00;;;7.30;;
3101;SDS011;1561;42.666;23.392;2023-07-29T05:48:37;11.45;;;7.03;;
3101;SDS011;1561;42.666;23.392;2023-07-29T05:51:08;7.35;;;6.65;;
3101;SDS011;1561;42.666;23.392;2023-07-29T05:53:38;8.30;;;7.38;;
3101;SDS011;1561;42.666;23.392;2023-07-29T05:56:08;7.72;;;7.03;;
3101;SDS011;1561;42.666;23.392;2023-07-29T05:58:36;8.32;;;7.30;;
3101;SDS011;1561;42.666;23.392;2023-07-29T06:01:06;6.97;;;6.35;;
3101;SDS011;1561;42.666;23.392;2023-07-29T06:03:35;13.18;;;6.72;;
3101;SDS011;1561;42.666;23.392;2023-07-29T06:06:11;8.90;;;6.93;;
3101;SDS011;1561;42.666;23.392;2023-07-29T06:08:42;9.48;;;7.13;;
3101;SDS011;1561;42.666;23.392;2023-07-29T06:11:12;11.77;;;8.82;;
3101;SDS011;1561;42.666;23.392;2023-07-29T06:13:47;11.60;;;7.72;;
3101;SDS011;1561;42.666;23.392;2023-07-29T06:16:14;11.43;;;6.90;;
3101;SDS011;1561;42.666;23.392;2023-07-29T06:18:42;9.75;;;6.90;;
3101;SDS011;1561;42.666;23.392;2023-07-29T06:21:09;8.85;;;7.88;;
3101;SDS011;1561;42.666;23.392;2023-07-29T06:23:42;10.30;;;6.53;;
3101;SDS011;1561;42.666;23.392;2023-07-29T06:26:08;7.53;;;6.80;;
3101;SDS011;1561;42.666;23.392;2023-07-29T06:28:36;7.07;;;6.50;;
3101;SDS011;1561;42.666;23.392;2023-07-29T06:31:05;6.97;;;6.28;;
3101;SDS011;1561;42.666;23.392;2023-07-29T06:33:36;7.22;;;6.63;;
3101;SDS011;1561;42.666;23.392;2023-07-29T06:36:03;7.00;;;6.38;;
3101;SDS011;1561;42.666;23.392;2023-07-29T06:38:33;8.32;;;6.43;;
3101;SDS011;1561;42.666;23.392;2023-07-29T06:41:02;7.07;;;6.47;;
3101;SDS011;1561;42.666;23.392;2023-07-29T06:43:29;11.07;;;10.05;;
3101;SDS011;1561;42.666;23.392;2023-07-29T06:45:56;10.25;;;9.52;;
3101;SDS011;1561;42.666;23.392;2023-07-29T06:48:25;6.30;;;5.80;;
3101;SDS011;1561;42.666;23.392;2023-07-29T06:50:52;8.60;;;6.35;;
3101;SDS011;1561;42.666;23.392;2023-07-29T06:53:27;7.53;;;6.45;;
3101;SDS011;1561;42.666;23.392;2023-07-29T06:55:55;6.50;;;5.88;;
3101;SDS011;1561;42.666;23.392;2023-07-29T06:58:24;6.93;;;6.32;;
3101;SDS011;1561;42.666;23.392;2023-07-29T07:00:55;7.65;;;6.90;;
3101;SDS011;1561;42.666;23.392;2023-07-29T07:03:28;6.45;;;5.95;;
3101;SDS011;1561;42.666;23.392;2023-07-29T07:05:56;7.93;;;7.20;;
3101;SDS011;1561;42.666;23.392;2023-07-29T07:08:24;11.57;;;7.03;;
3101;SDS011;1561;42.666;23.392;2023-07-29T07:10:51;7.20;;;6.50;;
3101;SDS011;1561;42.666;23.392;2023-07-29T07:13:21;7.22;;;6.53;;
3101;SDS011;1561;42.666;23.392;2023-07-29T07:15:52;7.47;;;6.88;;
3101;SDS011;1561;42.666;23.392;2023-07-29T07:18:38;6.85;;;6.15;;
3101;SDS011;1561;42.666;23.392;2023-07-29T07:21:05;8.70;;;6.82;;
3101;SDS011;1561;42.666;23.392;2023-07-29T07:23:33;6.70;;;6.10;;
3101;SDS011;1561;42.666;23.392;2023-07-29T07:26:02;6.53;;;5.10;;
3101;SDS011;1561;42.666;23.392;2023-07-29T07:28:41;7.00;;;6.50;;
3101;SDS011;1561;42.666;23.392;2023-07-29T07:31:09;6.55;;;6.03;;
3101;SDS011;1561;42.666;23.392;2023-07-29T07:33:37;6.25;;;5.70;;
3101;SDS011;1561;42.666;23.392;2023-07-29T07:36:07;6.63;;;6.05;;
3101;SDS011;1561;42.666;23.392;2023-07-29T07:38:34;8.07;;;5.97;;
3101;SDS011;1561;42.666;23.392;2023-07-29T07:41:07;6.45;;;5.95;;
3101;SDS011;1561;42.666;23.392;2023-07-29T07:43:42;6.78;;;6.30;;
3101;SDS011;1561;42.666;23.392;2023-07-29T07:46:12;6.63;;;5.95;;
3101;SDS011;1561;42.666;23.392;2023-07-29T07:48:41;6.50;;;5.90;;
3101;SDS011;1561;42.666;23.392;2023-07-29T07:51:10;6.65;;;6.00;;
3101;SDS011;1561;42.666;23.392;2023-07-29T07:53:39;9.82;;;6.03;;
3101;SDS011;1561;42.666;23.392;2023-07-29T07:56:08;6.63;;;6.13;;
3101;SDS011;1561;42.666;23.392;2023-07-29T07:58:36;7.78;;;6.45;;
3101;SDS011;1561;42.666;23.392;2023-07-29T08:01:02;8.45;;;6.50;;
3101;SDS011;1561;42.666;23.392;2023-07-29T08:03:31;6.32;;;5.20;;
3101;SDS011;1561;42.666;23.392;2023-07-29T08:06:04;7.88;;;7.18;;
3101;SDS011;1561;42.666;23.392;2023-07-29T08:08:32;7.70;;;7.03;;
3101;SDS011;1561;42.666;23.392;2023-07-29T08:10:59;8.23;;;7.43;;
3101;SDS011;1561;42.666;23.392;2023-07-29T08:13:26;9.63;;;8.77;;
3101;SDS011;1561;42.666;23.392;2023-07-29T08:15:56;6.68;;;6.05;;
3101;SDS011;1561;42.666;23.392;2023-07-29T08:18:31;6.57;;;6.07;;
3101;SDS011;1561;42.666;23.392;2023-07-29T08:20:59;6.82;;;6.35;;
3101;SDS011;1561;42.666;23.392;2023-07-29T08:23:34;6.00;;;5.50;;
3101;SDS011;1561;42.666;23.392;2023-07-29T08:26:03;5.50;;;5.00;;
3101;SDS011;1561;42.666;23.392;2023-07-29T08:28:32;5.50;;;5.10;;
3101;SDS011;1561;42.666;23.392;2023-07-29T08:31:01;6.07;;;5.68;;
3101;SDS011;1561;42.666;23.392;2023-07-29T08:33:33;5.90;;;5.30;;
3101;SDS011;1561;42.666;23.392;2023-07-29T08:36:03;5.57;;;5.18;;
3101;SDS011;1561;42.666;23.392;2023-07-29T08:38:32;5.82;;;5.43;;
3101;SDS011;1561;42.666;23.392;2023-07-29T08:41:06;4.72;;;4.38;;
3101;SDS011;1561;42.666;23.392;2023-07-29T08:43:43;5.78;;;4.75;;
3101;SDS011;1561;42.666;23.392;2023-07-29T08:46:19;4.57;;;4.28;;
3101;SDS011;1561;42.666;23.392;2023-07-29T08:48:46;7.82;;;6.82;;
3101;SDS011;1561;42.666;23.392;2023-07-29T08:51:20;4.57;;;4.10;;
3101;SDS011;1561;42.666;23.392;2023-07-29T08:53:55;5.18;;;4.82;;
3101;SDS011;1561;42.666;23.392;2023-07-29T08:56:33;4.43;;;4.13;;
3101;SDS011;1561;42.666;23.392;2023-07-29T08:59:03;4.45;;;4.15;;
3101;SDS011;1561;42.666;23.392;2023-07-29T09:01:42;4.30;;;4.10;;
3101;SDS011;1561;42.666;23.392;2023-07-29T09:04:14;4.15;;;3.95;;
3101;SDS011;1561;42.666;23.392;2023-07-29T09:06:43;4.00;;;3.70;;
3101;SDS011;1561;42.666;23.392;2023-07-29T09:09:23;3.85;;;3.45;;
3101;SDS011;1561;42.666;23.392;2023-07-29T09:11:51;4.13;;;3.92;;
3101;SDS011;1561;42.666;23.392;2023-07-29T09:14:24;4.40;;;4.00;;
3101;SDS011;1561;42.666;23.392;2023-07-29T09:16:53;4.70;;;4.30;;
3101;SDS011;1561;42.666;23.392;2023-07-29T09:19:27;3.90;;;3.70;;
3101;SDS011;1561;42.666;23.392;2023-07-29T09:22:00;3.50;;;3.22;;
3101;SDS011;1561;42.666;23.392;2023-07-29T09:24:32;4.63;;;3.40;;
3101;SDS011;1561;42.666;23.392;2023-07-29T09:27:00;3.78;;;3.47;;
3101;SDS011;1561;42.666;23.392;2023-07-29T09:29:27;2.83;;;2.67;;
3101;SDS011;1561;42.666;23.392;2023-07-29T09:34:46;3.53;;;3.33;;
3101;SDS011;1561;42.666;23.392;2023-07-29T09:37:18;4.68;;;4.15;;
3101;SDS011;1561;42.666;23.392;2023-07-29T09:39:55;2.67;;;2.47;;
3101;SDS011;1561;42.666;23.392;2023-07-29T09:42:23;2.78;;;2.58;;
3101;SDS011;1561;42.666;23.392;2023-07-29T09:44:52;3.03;;;2.92;;
3101;SDS011;1561;42.666;23.392;2023-07-29T09:47:20;6.03;;;4.78;;
3101;SDS011;1561;42.666;23.392;2023-07-29T09:49:49;8.93;;;2.58;;
3101;SDS011;1561;42.666;23.392;2023-07-29T09:52:17;2.42;;;2.33;;
3101;SDS011;1561;42.666;23.392;2023-07-29T09:54:46;2.75;;;2.40;;
3101;SDS011;1561;42.666;23.392;2023-07-29T09:57:16;3.38;;;3.08;;
3101;SDS011;1561;42.666;23.392;2023-07-29T09:59:53;5.40;;;4.88;;
3101;SDS011;1561;42.666;23.392;2023-07-29T10:02:21;3.30;;;3.13;;
3101;SDS011;1561;42.666;23.392;2023-07-29T10:04:53;2.60;;;2.50;;
3101;SDS011;1561;42.666;23.392;2023-07-29T10:07:22;3.03;;;2.83;;
3101;SDS011;1561;42.666;23.392;2023-07-29T10:09:53;2.88;;;2.67;;
3101;SDS011;1561;42.666;23.392;2023-07-29T10:12:27;3.85;;;2.92;;
3101;SDS011;1561;42.666;23.392;2023-07-29T10:14:59;2.88;;;2.67;;
3101;SDS011;1561;42.666;23.392;2023-07-29T10:17:29;3.22;;;2.88;;
3101;SDS011;1561;42.666;23.392;2023-07-29T10:19:57;6.85;;;5.97;;
3101;SDS011;1561;42.666;23.392;2023-07-29T10:22:24;3.60;;;3.40;;
3101;SDS011;1561;42.666;23.392;2023-07-29T10:25:03;5.28;;;3.00;;
3101;SDS011;1561;42.666;23.392;2023-07-29T10:27:38;2.72;;;2.53;;
3101;SDS011;1561;42.666;23.392;2023-07-29T10:30:10;3.10;;;2.88;;
3101;SDS011;1561;42.666;23.392;2023-07-29T10:32:45;3.63;;;3.33;;
3101;SDS011;1561;42.666;23.392;2023-07-29T10:35:19;3.00;;;2.72;;
3101;SDS011;1561;42.666;23.392;2023-07-29T10:37:47;6.25;;;2.72;;
3101;SDS011;1561;42.666;23.392;2023-07-29T10:40:43;2.83;;;2.72;;
3101;SDS011;1561;42.666;23.392;2023-07-29T10:43:34;3.03;;;2.83;;
3101;SDS011;1561;42.666;23.392;2023-07-29T10:46:15;2.78;;;2.58;;
3101;SDS011;1561;42.666;23.392;2023-07-29T10:48:52;4.85;;;1.80;;
3101;SDS011;1561;42.666;23.392;2023-07-29T10:51:22;2.35;;;2.25;;
3101;SDS011;1561;42.666;23.392;2023-07-29T10:53:55;2.50;;;2.40;;
3101;SDS011;1561;42.666;23.392;2023-07-29T10:56:30;2.10;;;2.00;;
3101;SDS011;1561;42.666;23.392;2023-07-29T11:02:00;2.15;;;2.05;;
3101;SDS011;1561;42.666;23.392;2023-07-29T11:04:28;2.33;;;2.20;;
3101;SDS011;1561;42.666;23.392;2023-07-29T11:10:01;1.95;;;1.95;;
3101;SDS011;1561;42.666;23.392;2023-07-29T11:12:44;2.40;;;2.30;;
3101;SDS011;1561;42.666;23.392;2023-07-29T11:15:42;2.20;;;2.10;;
3101;SDS011;1561;42.666;23.392;2023-07-29T11:18:14;2.45;;;2.35;;
3101;SDS011;1561;42.666;23.392;2023-07-29T11:20:41;2.70;;;2.60;;
3101;SDS011;1561;42.666;23.392;2023-07-29T11:23:11;2.70;;;2.60;;
3101;SDS011;1561;42.666;23.392;2023-07-29T11:25:45;3.15;;;3.05;;
3101;SDS011;1561;42.666;23.392;2023-07-29T11:28:16;4.03;;;3.72;;
3101;SDS011;1561;42.666;23.392;2023-07-29T11:30:51;2.70;;;2.60;;
3101;SDS011;1561;42.666;23.392;2023-07-29T11:33:20;3.17;;;2.40;;
3101;SDS011;1561;42.666;23.392;2023-07-29T11:35:50;5.20;;;4.80;;
3101;SDS011;1561;42.666;23.392;2023-07-29T11:38:22;2.80;;;2.60;;
3101;SDS011;1561;42.666;23.392;2023-07-29T11:40:56;2.95;;;2.85;;
3101;SDS011;1561;42.666;23.392;2023-07-29T11:43:27;2.60;;;2.50;;
3101;SDS011;1561;42.666;23.392;2023-07-29T11:45:56;3.00;;;2.80;;
3101;SDS011;1561;42.666;23.392;2023-07-29T11:48:27;3.35;;;3.15;;
3101;SDS011;1561;42.666;23.392;2023-07-29T11:50:56;3.40;;;3.20;;
3101;SDS011;1561;42.666;23.392;2023-07-29T11:53:26;2.92;;;2.67;;
3101;SDS011;1561;42.666;23.392;2023-07-29T11:55:55;2.92;;;2.83;;
3101;SDS011;1561;42.666;23.392;2023-07-29T11:58:24;2.65;;;2.55;;
3101;SDS011;1561;42.666;23.392;2023-07-29T12:00:59;2.85;;;2.75;;
3101;SDS011;1561;42.666;23.392;2023-07-29T12:03:27;7.25;;;6.65;;
3101;SDS011;1561;42.666;23.392;2023-07-29T12:05:57;4.40;;;3.22;;
3101;SDS011;1561;42.666;23.392;2023-07-29T12:08:33;3.53;;;3.30;;
3101;SDS011;1561;42.666;23.392;2023-07-29T12:11:02;8.50;;;7.80;;
3101;SDS011;1561;42.666;23.392;2023-07-29T12:13:31;3.55;;;3.35;;
3101;SDS011;1561;42.666;23.392;2023-07-29T12:16:07;3.38;;;3.17;;
3101;SDS011;1561;42.666;23.392;2023-07-29T12:18:33;3.25;;;2.42;;
3101;SDS011;1561;42.666;23.392;2023-07-29T12:21:03;2.35;;;2.15;;
3101;SDS011;1561;42.666;23.392;2023-07-29T12:23:30;2.38;;;2.15;;
3101;SDS011;1561;42.666;23.392;2023-07-29T12:26:00;3.47;;;3.28;;
3101;SDS011;1561;42.666;23.392;2023-07-29T12:28:31;2.80;;;2.70;;
3101;SDS011;1561;42.666;23.392;2023-07-29T12:30:59;2.45;;;2.35;;
3101;SDS011;1561;42.666;23.392;2023-07-29T12:33:32;3.05;;;2.95;;
3101;SDS011;1561;42.666;23.392;2023-07-29T12:36:00;6.40;;;5.85;;
3101;SDS011;1561;42.666;23.392;2023-07-29T12:38:27;5.93;;;5.30;;
3101;SDS011;1561;42.666;23.392;2023-07-29T12:40:55;2.58;;;2.47;;
3101;SDS011;1561;42.666;23.392;2023-07-29T12:43:22;3.20;;;2.47;;
3101;SDS011;1561;42.666;23.392;2023-07-29T12:45:51;2.78;;;2.58;;
3101;SDS011;1561;42.666;23.392;2023-07-29T12:48:21;3.97;;;2.78;;
3101;SDS011;1561;42.666;23.392;2023-07-29T12:50:52;2.40;;;2.20;;
3101;SDS011;1561;42.666;23.392;2023-07-29T12:53:23;2.92;;;2.83;;
3101;SDS011;1561;42.666;23.392;2023-07-29T12:55:50;3.20;;;3.10;;
3101;SDS011;1561;42.666;23.392;2023-07-29T12:58:28;2.65;;;2.55;;
3101;SDS011;1561;42.666;23.392;2023-07-29T13:00:55;3.08;;;2.78;;
3101;SDS011;1561;42.666;23.392;2023-07-29T13:03:23;3.17;;;2.97;;
3101;SDS011;1561;42.666;23.392;2023-07-29T13:05:53;2.85;;;2.60;;
3101;SDS011;1561;42.666;23.392;2023-07-29T13:08:23;4.97;;;3.40;;
3101;SDS011;1561;42.666;23.392;2023-07-29T13:10:50;3.75;;;3.55;;
3101;SDS011;1561;42.666;23.392;2023-07-29T13:13:19;5.47;;;5.15;;
3101;SDS011;1561;42.666;23.392;2023-07-29T13:15:51;3.30;;;3.10;;
3101;SDS011;1561;42.666;23.392;2023-07-29T13:18:18;3.00;;;2.80;;
3101;SDS011;1561;42.666;23.392;2023-07-29T13:20:49;3.03;;;2.92;;
3101;SDS011;1561;42.666;23.392;2023-07-29T13:23:21;3.00;;;2.80;;
3101;SDS011;1561;42.666;23.392;2023-07-29T13:25:49;3.35;;;3.25;;
3101;SDS011;1561;42.666;23.392;2023-07-29T13:28:17;4.80;;;4.53;;
3101;SDS011;1561;42.666;23.392;2023-07-29T13:30:45;3.78;;;3.47;;
3101;SDS011;1561;42.666;23.392;2023-07-29T13:33:12;3.95;;;3.75;;
3101;SDS011;1561;42.666;23.392;2023-07-29T13:35:43;3.92;;;3.67;;
3101;SDS011;1561;42.666;23.392;2023-07-29T13:38:12;4.25;;;3.95;;
3101;SDS011;1561;42.666;23.392;2023-07-29T13:40:44;3.60;;;3.40;;
3101;SDS011;1561;42.666;23.392;2023-07-29T13:43:11;3.47;;;3.38;;
3101;SDS011;1561;42.666;23.392;2023-07-29T13:45:39;3.78;;;3.58;;
3101;SDS011;1561;42.666;23.392;2023-07-29T13:48:09;3.92;;;3.72;;
3101;SDS011;1561;42.666;23.392;2023-07-29T13:50:44;3.70;;;3.50;;
3101;SDS011;1561;42.666;23.392;2023-07-29T13:53:12;3.35;;;3.15;;
3101;SDS011;1561;42.666;23.392;2023-07-29T13:55:39;3.90;;;3.65;;
3101;SDS011;1561;42.666;23.392;2023-07-29T13:58:07;3.10;;;3.00;;
3101;SDS011;1561;42.666;23.392;2023-07-29T14:00:34;6.82;;;3.47;;
3101;SDS011;1561;42.666;23.392;2023-07-29T14:03:02;3.28;;;3.08;;
3101;SDS011;1561;42.666;23.392;2023-07-29T14:05:32;3.60;;;3.40;;
3101;SDS011;1561;42.666;23.392;2023-07-29T14:08:00;3.22;;;3.03;;
3101;SDS011;1561;42.666;23.392;2023-07-29T14:10:27;2.65;;;2.55;;
3101;SDS011;1561;42.666;23.392;2023-07-29T14:13:04;4.22;;;3.92;;
3101;SDS011;1561;42.666;23.392;2023-07-29T14:15:34;2.90;;;2.70;;
3101;SDS011;1561;42.666;23.392;2023-07-29T14:18:01;3.97;;;3.78;;
3101;SDS011;1561;42.666;23.392;2023-07-29T14:20:29;3.67;;;3.47;;
3101;SDS011;1561;42.666;23.392;2023-07-29T14:22:59;3.80;;;3.58;;
3101;SDS011;1561;42.666;23.392;2023-07-29T14:25:27;4.00;;;3.80;;
3101;SDS011;1561;42.666;23.392;2023-07-29T14:27:57;4.10;;;3.90;;
3101;SDS011;1561;42.666;23.392;2023-07-29T14:30:26;4.10;;;3.90;;
3101;SDS011;1561;42.666;23.392;2023-07-29T14:33:07;4.15;;;3.90;;
3101;SDS011;1561;42.666;23.392;2023-07-29T14:35:37;3.40;;;3.20;;
3101;SDS011;1561;42.666;23.392;2023-07-29T14:38:07;3.72;;;2.80;;
3101;SDS011;1561;42.666;23.392;2023-07-29T14:40:34;3.95;;;3.65;;
3101;SDS011;1561;42.666;23.392;2023-07-29T14:43:01;4.07;;;3.65;;
3101;SDS011;1561;42.666;23.392;2023-07-29T14:45:30;3.67;;;2.78;;
3101;SDS011;1561;42.666;23.392;2023-07-29T14:47:58;5.15;;;4.68;;
3101;SDS011;1561;42.666;23.392;2023-07-29T14:50:28;3.70;;;3.50;;
3101;SDS011;1561;42.666;23.392;2023-07-29T14:52:55;4.20;;;3.90;;
3101;SDS011;1561;42.666;23.392;2023-07-29T14:55:22;4.10;;;3.90;;
3101;SDS011;1561;42.666;23.392;2023-07-29T14:57:49;3.67;;;3.38;;
3101;SDS011;1561;42.666;23.392;2023-07-29T15:00:17;3.30;;;3.10;;
3101;SDS011;1561;42.666;23.392;2023-07-29T15:02:49;3.50;;;3.30;;
3101;SDS011;1561;42.666;23.392;2023-07-29T15:05:18;3.67;;;3.38;;
3101;SDS011;1561;42.666;23.392;2023-07-29T15:07:46;3.17;;;2.88;;
3101;SDS011;1561;42.666;23.392;2023-07-29T15:10:17;3.42;;;3.22;;
3101;SDS011;1561;42.666;23.392;2023-07-29T15:12:51;4.45;;;3.70;;
3101;SDS011;1561;42.666;23.392;2023-07-29T15:15:18;4.40;;;4.10;;
3101;SDS011;1561;42.666;23.392;2023-07-29T15:17:46;3.72;;;3.53;;
3101;SDS011;1561;42.666;23.392;2023-07-29T15:20:14;3.53;;;3.33;;
3101;SDS011;1561;42.666;23.392;2023-07-29T15:22:43;3.35;;;3.15;;
3101;SDS011;1561;42.666;23.392;2023-07-29T15:25:10;3.60;;;3.40;;
3101;SDS011;1561;42.666;23.392;2023-07-29T15:27:38;3.60;;;3.40;;